Time;durP1;ratioP1;P1;durP2;ratioP2;P2;SDS_P1;SDS_P2;PMS_P1;PMS_P2;Temp;Humidity;BMP_temperature;BMP_pressure;BME280_temperature;BME280_humidity;BME280_pressure;Samples;Min_cycle;Max_cycle;Signal;HPM_P1;HPM_P2
2023/08/27 00:01:51;;;;;;;9.13;8.20;;;12.80;99.90;;;;;;4956321;28;20046;-83
2023/08/27 00:04:17;;;;;;;14.50;9.15;;;12.80;99.90;;;;;;4959421;28;20046;-82
2023/08/27 00:06:42;;;;;;;10.60;9.50;;;12.70;99.90;;;;;;4957809;28;20477;-82
2023/08/27 00:09:08;;;;;;;10.75;9.00;;;12.80;99.90;;;;;;4974686;28;20057;-82
2023/08/27 00:11:34;;;;;;;12.40;9.50;;;12.70;99.90;;;;;;4973626;28;20076;-83
2023/08/27 00:14:00;;;;;;;9.40;8.35;;;12.70;99.90;;;;;;4973642;28;20538;-83
2023/08/27 00:16:25;;;;;;;9.95;8.90;;;12.70;99.90;;;;;;4940249;28;20145;-83
2023/08/27 00:18:51;;;;;;;10.30;9.30;;;12.60;99.90;;;;;;4956535;28;20077;-83
2023/08/27 00:21:16;;;;;;;10.20;9.20;;;12.70;99.90;;;;;;4955853;28;20121;-83
2023/08/27 00:23:45;;;;;;;11.27;9.30;;;12.60;99.90;;;;;;4956859;28;20042;-83
2023/08/27 00:26:12;;;;;;;10.30;9.30;;;12.60;99.90;;;;;;4951461;28;20038;-83
2023/08/27 00:28:38;;;;;;;11.35;9.32;;;12.60;99.90;;;;;;4956554;28;20185;-83
2023/08/27 00:31:04;;;;;;;10.35;9.25;;;12.60;99.90;;;;;;4958545;28;20668;-83
2023/08/27 00:33:30;;;;;;;12.52;9.65;;;12.60;99.90;;;;;;4975373;28;20042;-83
2023/08/27 00:35:56;;;;;;;12.10;10.55;;;12.60;99.90;;;;;;4974999;28;20045;-83
2023/08/27 00:38:21;;;;;;;11.70;9.85;;;12.60;99.90;;;;;;4943796;28;20034;-83
2023/08/27 00:40:48;;;;;;;10.85;9.40;;;12.60;99.90;;;;;;4941721;28;20057;-83
2023/08/27 00:43:13;;;;;;;10.68;9.57;;;12.60;99.90;;;;;;4958559;28;20080;-83
2023/08/27 00:45:39;;;;;;;11.65;9.52;;;12.50;99.90;;;;;;4956286;28;20421;-83
2023/08/27 00:48:06;;;;;;;11.35;10.18;;;12.60;99.90;;;;;;4953533;28;20122;-82
2023/08/27 00:50:32;;;;;;;11.23;10.07;;;12.50;99.90;;;;;;4973024;28;20504;-83
2023/08/27 00:52:58;;;;;;;12.95;10.10;;;12.60;99.90;;;;;;4955443;28;20046;-84
2023/08/27 00:55:24;;;;;;;12.65;11.13;;;12.50;99.90;;;;;;4940419;28;20070;-83
2023/08/27 00:57:51;;;;;;;14.43;11.43;;;12.50;99.90;;;;;;4953631;28;20168;-83
2023/08/27 01:00:18;;;;;;;12.88;11.52;;;12.50;99.90;;;;;;4940309;28;20558;-83
2023/08/27 01:02:44;;;;;;;12.20;10.90;;;12.50;99.90;;;;;;4956049;28;20053;-83
2023/08/27 01:05:14;;;;;;;12.02;10.82;;;12.50;99.90;;;;;;4958795;28;21106;-83
2023/08/27 01:08:01;;;;;;;11.85;10.68;;;12.50;99.90;;;;;;4974446;28;20055;-83
2023/08/27 01:10:40;;;;;;;11.55;10.35;;;12.50;99.90;;;;;;4976611;28;20118;-83
2023/08/27 01:13:14;;;;;;;11.88;10.68;;;12.60;99.90;;;;;;4974786;28;20089;-83
2023/08/27 01:15:40;;;;;;;12.52;10.52;;;12.50;99.90;;;;;;4959903;28;20030;-83
2023/08/27 01:18:08;;;;;;;11.80;10.60;;;12.50;99.90;;;;;;4957345;28;20046;-83
2023/08/27 01:20:34;;;;;;;11.63;10.35;;;12.60;99.90;;;;;;4962054;28;20285;-83
2023/08/27 01:23:00;;;;;;;11.55;10.27;;;12.50;99.90;;;;;;4974545;28;20049;-83
2023/08/27 01:25:46;;;;;;;12.70;11.07;;;12.60;99.90;;;;;;4974599;28;20073;-83
2023/08/27 01:28:19;;;;;;;12.80;11.43;;;12.60;99.90;;;;;;4966279;28;20066;-83
2023/08/27 01:31:08;;;;;;;12.13;10.43;;;12.60;99.90;;;;;;4978379;28;20068;-83
2023/08/27 01:33:36;;;;;;;12.07;10.75;;;12.60;99.90;;;;;;4962981;28;20049;-83
2023/08/27 01:36:02;;;;;;;13.30;10.15;;;12.70;99.90;;;;;;4976252;28;20063;-83
2023/08/27 01:38:29;;;;;;;11.35;10.15;;;12.70;99.90;;;;;;4959921;28;20038;-83
2023/08/27 01:40:54;;;;;;;11.85;10.52;;;12.70;99.90;;;;;;4940566;28;20039;-82
2023/08/27 01:43:20;;;;;;;11.38;10.13;;;12.80;99.90;;;;;;4957409;28;20056;-83
2023/08/27 01:45:49;;;;;;;11.10;9.95;;;12.80;99.90;;;;;;4973331;28;21033;-84
2023/08/27 01:48:14;;;;;;;12.02;10.73;;;12.80;99.90;;;;;;4943344;28;20046;-83
2023/08/27 01:50:40;;;;;;;11.52;10.23;;;12.80;99.90;;;;;;4945199;28;20092;-84
2023/08/27 01:53:06;;;;;;;10.60;9.05;;;12.80;99.90;;;;;;4945242;28;20081;-83
2023/08/27 01:55:31;;;;;;;12.07;10.23;;;12.70;99.90;;;;;;4960162;28;20082;-83
2023/08/27 01:57:57;;;;;;;11.48;10.27;;;12.70;99.90;;;;;;4943454;28;20034;-83
2023/08/27 02:00:23;;;;;;;12.52;11.10;;;12.70;99.90;;;;;;4944838;28;20042;-83
2023/08/27 02:02:51;;;;;;;11.70;10.23;;;12.60;99.90;;;;;;4976173;28;20046;-83
2023/08/27 02:05:17;;;;;;;11.55;9.93;;;12.60;99.90;;;;;;4960447;28;20468;-84
2023/08/27 02:07:43;;;;;;;10.77;9.68;;;12.50;99.90;;;;;;4958235;28;20077;-83
2023/08/27 02:10:09;;;;;;;12.82;10.48;;;12.50;99.90;;;;;;4960550;28;20076;-83
2023/08/27 02:12:35;;;;;;;10.10;9.00;;;12.40;99.90;;;;;;4942898;28;20076;-83
2023/08/27 02:15:03;;;;;;;11.45;9.25;;;12.40;99.90;;;;;;4960656;28;20030;-83
2023/08/27 02:17:32;;;;;;;11.68;10.02;;;12.50;99.90;;;;;;4958954;28;20038;-83
2023/08/27 02:19:58;;;;;;;11.73;9.95;;;12.40;99.90;;;;;;4959830;28;20538;-83
2023/08/27 02:22:23;;;;;;;11.07;9.95;;;12.40;99.90;;;;;;4974808;28;20122;-83
2023/08/27 02:24:49;;;;;;;12.27;9.30;;;12.40;99.90;;;;;;4957069;28;20087;-84
2023/08/27 02:27:14;;;;;;;10.88;9.75;;;12.40;99.90;;;;;;4942348;28;20050;-83
2023/08/27 02:29:40;;;;;;;41.30;12.20;;;12.30;99.90;;;;;;4942665;28;20468;-83
2023/08/27 02:32:06;;;;;;;12.73;10.35;;;12.30;99.90;;;;;;4940848;28;20514;-83
2023/08/27 02:34:32;;;;;;;11.52;10.32;;;12.30;99.90;;;;;;4976732;28;20072;-83
2023/08/27 02:36:58;;;;;;;11.05;9.85;;;12.30;99.90;;;;;;4954131;28;20585;-84
2023/08/27 02:39:24;;;;;;;12.88;10.40;;;12.20;99.90;;;;;;4973165;28;20493;-83
2023/08/27 02:41:49;;;;;;;11.15;9.85;;;12.30;99.90;;;;;;4956995;28;20046;-84
2023/08/27 02:44:15;;;;;;;11.65;10.02;;;12.30;99.90;;;;;;4958937;28;20472;-84
2023/08/27 02:46:41;;;;;;;11.70;10.50;;;12.30;99.90;;;;;;4944065;28;20046;-84
2023/08/27 02:49:06;;;;;;;13.63;11.23;;;12.40;99.90;;;;;;4973232;28;20391;-84
2023/08/27 02:51:32;;;;;;;11.88;10.68;;;12.30;99.90;;;;;;4973851;28;20080;-83
2023/08/27 02:53:58;;;;;;;13.15;11.27;;;12.30;99.90;;;;;;4942914;28;20505;-84
2023/08/27 02:56:23;;;;;;;15.43;12.35;;;12.30;99.90;;;;;;4943182;28;20135;-84
2023/08/27 02:58:52;;;;;;;15.25;11.48;;;12.40;99.90;;;;;;4960431;28;20031;-84
2023/08/27 03:01:20;;;;;;;12.57;10.57;;;12.30;99.90;;;;;;4954971;28;20043;-84
2023/08/27 03:03:49;;;;;;;14.63;11.45;;;12.30;99.90;;;;;;4975470;28;20034;-84
2023/08/27 03:06:15;;;;;;;14.45;11.27;;;12.30;99.90;;;;;;4960458;28;20141;-84
2023/08/27 03:08:41;;;;;;;13.00;10.63;;;12.30;99.90;;;;;;4943176;28;20395;-85
2023/08/27 03:11:07;;;;;;;12.77;10.55;;;12.30;99.90;;;;;;4959353;28;20061;-83
2023/08/27 03:13:32;;;;;;;12.65;11.32;;;12.40;99.90;;;;;;4955438;28;20049;-84
2023/08/27 03:15:58;;;;;;;12.18;10.80;;;12.40;99.90;;;;;;4944374;28;20042;-84
2023/08/27 03:18:24;;;;;;;13.32;11.73;;;12.30;99.90;;;;;;4961016;28;20034;-84
2023/08/27 03:20:51;;;;;;;15.45;11.52;;;12.40;99.90;;;;;;4957479;28;20066;-84
2023/08/27 03:23:17;;;;;;;11.95;10.38;;;12.40;99.90;;;;;;4959551;28;20482;-84
2023/08/27 03:25:43;;;;;;;13.90;11.30;;;12.40;99.90;;;;;;4955655;28;20045;-84
2023/08/27 03:28:09;;;;;;;14.15;12.00;;;12.40;99.90;;;;;;4958354;28;20044;-84
2023/08/27 03:30:35;;;;;;;14.75;11.63;;;12.50;99.90;;;;;;4941243;28;20088;-83
2023/08/27 03:33:00;;;;;;;17.10;12.45;;;12.50;99.90;;;;;;4955531;28;20116;-84
2023/08/27 03:35:26;;;;;;;15.30;12.20;;;12.50;99.90;;;;;;4959524;28;20034;-84
2023/08/27 03:37:51;;;;;;;12.25;10.95;;;12.60;99.90;;;;;;4941273;28;20034;-84
2023/08/27 03:40:17;;;;;;;13.63;11.20;;;12.60;99.90;;;;;;4955707;28;20048;-84
2023/08/27 03:42:43;;;;;;;14.75;11.55;;;12.60;99.90;;;;;;4955098;28;20034;-84
2023/08/27 03:45:09;;;;;;;16.70;11.73;;;12.60;99.90;;;;;;4955095;28;20199;-83
2023/08/27 03:47:35;;;;;;;15.00;12.00;;;12.70;99.90;;;;;;4942543;28;20053;-84
2023/08/27 03:50:04;;;;;;;12.70;11.40;;;12.70;99.90;;;;;;4976153;28;20050;-85
2023/08/27 03:52:34;;;;;;;14.57;11.63;;;12.70;99.90;;;;;;4944655;28;20282;-84
2023/08/27 03:55:01;;;;;;;13.07;11.35;;;12.80;99.90;;;;;;4974888;28;20096;-84
2023/08/27 03:57:27;;;;;;;14.55;12.32;;;12.80;99.90;;;;;;4974607;28;20042;-84
2023/08/27 03:59:55;;;;;;;13.65;11.95;;;12.80;99.90;;;;;;4974523;28;20049;-84
2023/08/27 04:02:21;;;;;;;12.98;11.57;;;12.80;99.90;;;;;;4938724;28;20494;-84
2023/08/27 04:04:46;;;;;;;13.68;11.57;;;12.90;99.90;;;;;;4976884;28;20124;-84
2023/08/27 04:07:12;;;;;;;13.35;11.32;;;12.90;99.90;;;;;;4945097;28;20058;-84
2023/08/27 04:09:38;;;;;;;13.88;12.38;;;12.90;99.90;;;;;;4941763;28;20169;-84
2023/08/27 04:12:04;;;;;;;14.23;12.52;;;12.90;99.90;;;;;;4956409;28;20509;-85
2023/08/27 04:14:30;;;;;;;13.75;11.85;;;12.90;99.90;;;;;;4974026;28;20524;-85
2023/08/27 04:16:55;;;;;;;13.15;10.52;;;12.90;99.90;;;;;;4956101;28;20043;-84
2023/08/27 04:19:21;;;;;;;16.83;11.18;;;12.80;99.90;;;;;;4958865;28;20125;-84
2023/08/27 04:21:47;;;;;;;12.13;10.65;;;12.80;99.90;;;;;;4957663;28;20384;-83
2023/08/27 04:24:12;;;;;;;13.10;11.45;;;12.80;99.90;;;;;;4959223;28;20097;-84
2023/08/27 04:26:38;;;;;;;11.00;9.77;;;12.70;99.90;;;;;;4953878;28;20108;-84
2023/08/27 04:29:04;;;;;;;14.90;10.75;;;12.70;99.90;;;;;;4955644;28;20125;-84
2023/08/27 04:31:30;;;;;;;13.73;11.32;;;12.70;99.90;;;;;;4941493;28;20046;-84
2023/08/27 04:33:55;;;;;;;14.38;10.73;;;12.60;99.90;;;;;;4942969;28;20404;-84
2023/08/27 04:36:23;;;;;;;13.18;10.23;;;12.60;99.90;;;;;;4974631;28;20078;-84
2023/08/27 04:38:49;;;;;;;12.02;10.38;;;12.60;99.90;;;;;;4979832;28;20042;-85
2023/08/27 04:41:15;;;;;;;11.20;9.80;;;12.60;99.90;;;;;;4974695;28;20069;-84
2023/08/27 04:43:40;;;;;;;12.60;10.88;;;12.50;99.90;;;;;;4946815;28;20860;-83
2023/08/27 04:46:06;;;;;;;13.85;10.57;;;12.50;99.90;;;;;;4944245;28;20077;-84
2023/08/27 04:48:32;;;;;;;11.90;10.23;;;12.50;99.90;;;;;;4977363;28;20042;-84
2023/08/27 04:50:58;;;;;;;13.88;10.98;;;12.50;99.90;;;;;;4959402;28;20049;-84
2023/08/27 04:53:26;;;;;;;11.68;10.43;;;12.50;99.90;;;;;;4979552;28;20535;-84
2023/08/27 04:55:55;;;;;;;14.82;10.40;;;12.50;99.90;;;;;;4960050;28;20039;-84
2023/08/27 04:58:21;;;;;;;11.38;10.18;;;12.50;99.90;;;;;;4960808;28;20137;-84
2023/08/27 05:00:48;;;;;;;11.52;10.32;;;12.50;99.90;;;;;;4958948;28;20085;-83
2023/08/27 05:03:16;;;;;;;12.93;10.80;;;12.50;99.90;;;;;;4946406;28;20044;-84
2023/08/27 05:05:42;;;;;;;13.23;10.70;;;12.50;99.90;;;;;;4946251;28;20038;-84
2023/08/27 05:08:08;;;;;;;14.93;10.50;;;12.50;99.90;;;;;;4962007;28;20490;-83
2023/08/27 05:10:33;;;;;;;12.25;10.00;;;12.50;99.90;;;;;;4940875;28;20050;-83
2023/08/27 05:12:59;;;;;;;11.25;9.95;;;12.50;99.90;;;;;;4943700;28;20038;-84
2023/08/27 05:15:24;;;;;;;12.27;9.70;;;12.60;99.90;;;;;;4962488;28;20117;-83
2023/08/27 05:17:50;;;;;;;12.70;10.57;;;12.50;99.90;;;;;;4959590;28;20591;-83
2023/08/27 05:20:16;;;;;;;12.85;10.40;;;12.60;99.90;;;;;;4976763;28;20058;-83
2023/08/27 05:22:42;;;;;;;13.23;10.48;;;12.60;99.90;;;;;;4960206;28;20042;-84
2023/08/27 05:25:08;;;;;;;11.77;10.10;;;12.70;99.90;;;;;;4960820;28;20042;-83
2023/08/27 05:27:34;;;;;;;14.63;10.70;;;12.70;99.90;;;;;;4956807;28;20620;-83
2023/08/27 05:30:00;;;;;;;12.63;11.00;;;12.80;99.90;;;;;;4961349;28;20061;-83
2023/08/27 05:32:26;;;;;;;11.63;10.43;;;12.90;99.90;;;;;;4976477;28;20114;-83
2023/08/27 05:34:53;;;;;;;11.93;10.55;;;13.00;99.90;;;;;;4961669;28;20066;-84
2023/08/27 05:37:19;;;;;;;13.40;10.70;;;13.10;99.90;;;;;;4945433;28;20044;-84
2023/08/27 05:39:45;;;;;;;11.93;10.00;;;13.30;99.90;;;;;;4961890;28;20034;-84
2023/08/27 05:42:10;;;;;;;12.25;10.93;;;13.40;99.90;;;;;;4957517;28;20042;-83
2023/08/27 05:44:36;;;;;;;14.20;10.93;;;13.60;99.90;;;;;;4959200;28;20104;-84
2023/08/27 05:47:02;;;;;;;13.30;10.40;;;13.70;99.90;;;;;;4942040;28;20046;-83
2023/08/27 05:49:27;;;;;;;11.85;10.63;;;13.80;99.90;;;;;;4958736;28;20038;-83
2023/08/27 05:51:53;;;;;;;14.35;10.57;;;13.90;99.90;;;;;;4975630;28;20041;-82
2023/08/27 05:54:19;;;;;;;12.02;10.07;;;13.90;99.90;;;;;;4973879;28;20089;-83
2023/08/27 05:56:45;;;;;;;10.77;9.25;;;14.10;99.90;;;;;;4960069;28;20593;-83
2023/08/27 05:59:13;;;;;;;9.93;8.88;;;14.20;99.90;;;;;;4961935;28;20042;-83
2023/08/27 06:01:41;;;;;;;11.50;8.57;;;14.30;99.90;;;;;;4960854;28;20121;-84
2023/08/27 06:04:06;;;;;;;10.15;8.82;;;14.40;99.90;;;;;;4962469;28;20075;-83
2023/08/27 06:06:32;;;;;;;10.32;8.52;;;14.40;99.90;;;;;;4957674;28;20070;-83
2023/08/27 06:08:57;;;;;;;9.25;7.40;;;14.30;99.90;;;;;;4959496;28;20298;-83
2023/08/27 06:11:23;;;;;;;11.55;8.63;;;14.40;99.90;;;;;;4974711;28;20571;-83
2023/08/27 06:13:49;;;;;;;11.45;8.63;;;14.50;99.90;;;;;;4943048;28;20506;-83
2023/08/27 06:16:14;;;;;;;8.82;7.90;;;14.50;99.90;;;;;;4954628;28;20038;-86
2023/08/27 06:18:40;;;;;;;10.10;8.20;;;14.50;99.90;;;;;;4959313;28;20720;-85
2023/08/27 06:21:06;;;;;;;9.00;8.02;;;14.50;99.90;;;;;;4960337;28;20065;-86
2023/08/27 06:23:32;;;;;;;9.85;8.15;;;14.50;99.90;;;;;;4957786;28;20056;-86
2023/08/27 06:26:04;;;;;;;10.25;8.30;;;14.40;99.90;;;;;;4959831;28;20480;-88
2023/08/27 06:28:31;;;;;;;9.50;7.57;;;14.50;99.90;;;;;;4959194;28;20042;-87
2023/08/27 06:30:56;;;;;;;8.52;7.30;;;14.40;99.90;;;;;;4956321;28;20506;-86
2023/08/27 06:33:22;;;;;;;9.55;7.40;;;14.40;99.90;;;;;;4974883;28;20050;-86
2023/08/27 06:35:48;;;;;;;10.05;7.53;;;14.40;99.90;;;;;;4944157;28;20038;-86
2023/08/27 06:38:14;;;;;;;8.63;7.03;;;14.40;99.90;;;;;;4962179;28;20042;-86
2023/08/27 06:40:39;;;;;;;10.63;7.50;;;14.30;99.90;;;;;;4959839;28;20504;-85
2023/08/27 06:43:05;;;;;;;12.07;7.20;;;14.30;99.90;;;;;;4941785;28;20057;-85
2023/08/27 06:45:31;;;;;;;11.90;7.72;;;14.30;99.90;;;;;;4957369;28;20034;-86
2023/08/27 06:47:56;;;;;;;8.68;6.82;;;14.30;99.90;;;;;;4940493;28;20441;-85
2023/08/27 06:50:22;;;;;;;7.70;6.55;;;14.30;99.90;;;;;;4959807;28;20046;-86
2023/08/27 06:52:48;;;;;;;8.50;6.95;;;14.30;99.90;;;;;;4960333;28;20042;-86
2023/08/27 06:55:14;;;;;;;10.25;6.55;;;14.30;99.90;;;;;;4955794;28;20547;-85
2023/08/27 06:57:39;;;;;;;9.32;7.50;;;14.40;99.90;;;;;;4956593;28;20038;-86
2023/08/27 07:00:12;;;;;;;7.90;6.30;;;14.50;99.90;;;;;;4942775;28;20031;-85
2023/08/27 07:02:37;;;;;;;8.93;6.63;;;14.40;99.90;;;;;;4943611;28;20481;-86
2023/08/27 07:05:08;;;;;;;6.95;5.63;;;14.50;99.90;;;;;;4971429;28;20052;-85
2023/08/27 07:07:40;;;;;;;8.40;5.88;;;14.50;99.90;;;;;;4957199;28;20502;-85
2023/08/27 07:10:08;;;;;;;8.23;6.03;;;14.40;99.90;;;;;;4942528;28;20053;-86
2023/08/27 07:12:35;;;;;;;7.28;5.50;;;14.50;99.90;;;;;;4956125;28;20133;-86
2023/08/27 07:15:02;;;;;;;8.93;5.45;;;14.50;99.90;;;;;;4959889;28;20609;-85
2023/08/27 07:17:27;;;;;;;7.22;5.07;;;14.50;99.90;;;;;;4957865;28;20027;-86
2023/08/27 07:19:53;;;;;;;6.18;5.13;;;14.60;99.90;;;;;;4959901;28;20481;-86
2023/08/27 07:22:19;;;;;;;7.72;4.93;;;14.70;99.90;;;;;;4958084;28;20057;-86
2023/08/27 07:24:44;;;;;;;6.00;4.70;;;14.80;99.90;;;;;;4960415;28;20140;-87
2023/08/27 07:27:10;;;;;;;6.07;4.72;;;14.80;99.90;;;;;;4939969;28;20042;-86
2023/08/27 07:29:36;;;;;;;6.32;5.15;;;14.90;99.90;;;;;;4956867;28;20444;-86
2023/08/27 07:32:03;;;;;;;6.15;4.90;;;15.00;99.90;;;;;;4958644;28;20421;-86
2023/08/27 07:34:35;;;;;;;5.03;4.53;;;14.90;99.90;;;;;;4960163;28;20149;-86
2023/08/27 07:37:00;;;;;;;8.48;4.80;;;15.00;99.90;;;;;;4956911;28;20069;-85
2023/08/27 07:39:26;;;;;;;6.20;4.63;;;14.90;99.90;;;;;;4954009;28;20098;-87
2023/08/27 07:41:54;;;;;;;5.68;4.53;;;14.90;99.90;;;;;;4957293;28;20120;-86
2023/08/27 07:44:19;;;;;;;7.35;5.00;;;14.90;99.90;;;;;;4940076;28;20081;-86
2023/08/27 07:46:45;;;;;;;4.80;4.00;;;14.90;99.90;;;;;;4958431;28;20069;-86
2023/08/27 07:49:10;;;;;;;5.88;4.13;;;14.90;99.90;;;;;;4938841;28;20469;-85
2023/08/27 07:51:39;;;;;;;6.10;4.10;;;14.90;99.90;;;;;;4972550;28;20046;-86
2023/08/27 07:54:05;;;;;;;5.25;3.80;;;15.00;99.90;;;;;;4958926;28;20501;-86
2023/08/27 07:56:31;;;;;;;4.68;4.18;;;15.00;99.90;;;;;;4957031;28;20096;-86
2023/08/27 07:58:56;;;;;;;5.05;3.92;;;15.10;99.90;;;;;;4951743;28;20046;-87
2023/08/27 08:01:22;;;;;;;5.88;3.78;;;15.00;99.90;;;;;;4942029;28;20475;-87
2023/08/27 08:03:48;;;;;;;4.88;3.80;;;15.20;99.90;;;;;;4957701;28;20112;-87
2023/08/27 08:06:13;;;;;;;6.70;3.70;;;15.50;99.90;;;;;;4955824;28;20038;-86
2023/08/27 08:08:40;;;;;;;5.30;4.00;;;15.60;99.90;;;;;;4957144;28;20058;-86
2023/08/27 08:11:08;;;;;;;4.95;3.67;;;15.70;99.90;;;;;;4959746;28;20050;-87
2023/08/27 08:13:35;;;;;;;5.65;4.20;;;15.70;99.90;;;;;;4958075;28;20058;-88
2023/08/27 08:16:02;;;;;;;7.13;3.92;;;15.80;99.90;;;;;;4977065;28;20046;-87
2023/08/27 08:18:28;;;;;;;4.90;4.25;;;15.90;99.90;;;;;;4961313;28;20108;-87
2023/08/27 08:20:56;;;;;;;5.85;3.85;;;16.00;99.90;;;;;;4962508;28;20494;-86
2023/08/27 08:23:25;;;;;;;5.22;3.83;;;16.10;99.90;;;;;;4947116;28;20053;-87
2023/08/27 08:25:51;;;;;;;5.68;3.80;;;16.20;99.90;;;;;;4955811;28;20215;-87
2023/08/27 08:28:17;;;;;;;5.13;3.95;;;16.30;99.90;;;;;;4959913;28;20046;-87
2023/08/27 08:30:48;;;;;;;6.18;4.13;;;16.30;99.90;;;;;;4979291;28;20065;-87
2023/08/27 08:33:16;;;;;;;5.75;4.03;;;16.40;99.90;;;;;;4962029;28;20156;-87
2023/08/27 08:35:43;;;;;;;6.55;4.43;;;16.40;99.90;;;;;;4978192;28;20050;-87
2023/08/27 08:38:09;;;;;;;5.60;4.43;;;16.50;99.90;;;;;;4947541;28;20034;-87
2023/08/27 08:40:55;;;;;;;5.82;4.10;;;16.70;99.90;;;;;;4959045;28;20050;-87
2023/08/27 08:43:28;;;;;;;5.40;3.90;;;16.80;99.90;;;;;;4977908;28;20453;-88
2023/08/27 08:46:06;;;;;;;5.13;3.83;;;17.00;99.90;;;;;;4959492;28;20046;-87
2023/08/27 08:48:39;;;;;;;6.53;4.10;;;16.90;99.90;;;;;;4960603;28;20054;-86
2023/08/27 08:51:10;;;;;;;5.40;3.97;;;17.10;99.90;;;;;;4962019;28;20711;-85
2023/08/27 08:53:49;;;;;;;5.93;3.58;;;17.10;99.90;;;;;;4945285;28;20485;-85
2023/08/27 08:56:27;;;;;;;5.13;3.53;;;17.10;99.90;;;;;;4947088;28;20114;-85
2023/08/27 08:58:56;;;;;;;5.07;3.47;;;17.30;99.90;;;;;;4958816;28;20437;-85
2023/08/27 09:01:22;;;;;;;4.82;3.33;;;17.50;99.90;;;;;;4959486;28;20045;-86
2023/08/27 09:03:50;;;;;;;5.63;3.85;;;17.50;99.90;;;;;;4961895;28;20505;-86
2023/08/27 09:06:23;;;;;;;3.75;3.13;;;17.70;99.90;;;;;;4943559;28;20034;-85
2023/08/27 09:08:50;;;;;;;3.72;3.03;;;17.80;99.90;;;;;;4961204;28;20065;-87
2023/08/27 09:11:17;;;;;;;4.82;2.75;;;18.00;99.90;;;;;;4959914;28;20038;-86
2023/08/27 09:13:43;;;;;;;4.55;3.00;;;18.10;99.90;;;;;;4960141;28;20038;-86
2023/08/27 09:16:09;;;;;;;3.78;2.42;;;17.90;99.90;;;;;;4976325;28;20516;-86
2023/08/27 09:18:35;;;;;;;3.20;2.47;;;18.10;99.90;;;;;;4959712;28;20097;-86
2023/08/27 09:21:02;;;;;;;3.92;2.70;;;18.40;99.90;;;;;;4960182;28;20057;-85
2023/08/27 09:23:32;;;;;;;3.22;2.60;;;18.50;99.90;;;;;;4948308;28;20042;-86
2023/08/27 09:26:02;;;;;;;3.22;2.40;;;18.30;99.90;;;;;;4939594;28;20553;-87
2023/08/27 09:28:27;;;;;;;4.88;2.55;;;18.60;99.90;;;;;;4960269;28;20104;-86
2023/08/27 09:30:53;;;;;;;4.32;2.60;;;18.80;99.90;;;;;;4961002;28;20046;-85
2023/08/27 09:33:19;;;;;;;3.22;2.30;;;19.00;99.90;;;;;;4959010;28;20095;-87
2023/08/27 09:35:46;;;;;;;3.38;2.55;;;19.30;99.90;;;;;;4958787;28;20157;-86
2023/08/27 09:38:15;;;;;;;3.13;2.50;;;19.50;99.90;;;;;;4974235;28;20317;-85
2023/08/27 09:40:44;;;;;;;3.10;2.13;;;19.70;99.90;;;;;;4960704;28;20039;-86
2023/08/27 09:43:11;;;;;;;2.92;1.95;;;19.60;99.90;;;;;;4943251;28;20623;-85
2023/08/27 09:45:38;;;;;;;2.42;1.90;;;19.60;99.90;;;;;;4960103;28;20267;-85
2023/08/27 09:48:06;;;;;;;2.88;2.13;;;19.40;99.90;;;;;;4958504;28;20042;-86
2023/08/27 09:50:32;;;;;;;3.60;1.90;;;19.60;99.90;;;;;;4959545;28;20050;-85
2023/08/27 09:53:10;;;;;;;3.45;1.90;;;19.60;99.90;;;;;;4956885;28;20042;-86
2023/08/27 09:55:53;;;;;;;2.90;1.52;;;19.50;99.90;;;;;;4964350;28;20030;-86
2023/08/27 09:58:26;;;;;;;1.42;1.33;;;19.80;99.90;;;;;;4946238;28;20034;-86
2023/08/27 10:00:58;;;;;;;2.35;1.70;;;20.20;99.90;;;;;;4959014;28;20487;-86
2023/08/27 10:03:23;;;;;;;2.40;1.70;;;20.30;99.90;;;;;;4957644;28;20185;-86
2023/08/27 10:05:50;;;;;;;2.60;1.70;;;20.40;99.90;;;;;;4975911;28;20054;-86
2023/08/27 10:08:16;;;;;;;4.13;1.70;;;20.50;99.90;;;;;;4960597;28;20557;-86
2023/08/27 10:10:42;;;;;;;3.10;1.80;;;20.40;99.90;;;;;;4975493;28;20058;-86
2023/08/27 10:13:10;;;;;;;3.60;1.50;;;20.70;99.90;;;;;;4955571;28;20061;-85
2023/08/27 10:15:36;;;;;;;2.80;1.63;;;20.90;99.90;;;;;;4945839;28;20046;-86
2023/08/27 10:18:05;;;;;;;2.80;1.80;;;20.90;99.90;;;;;;4970802;28;20050;-86
2023/08/27 10:20:31;;;;;;;2.97;1.67;;;21.00;99.90;;;;;;4976988;28;20038;-85
2023/08/27 10:22:57;;;;;;;2.67;1.80;;;21.30;99.90;;;;;;4959697;28;20149;-86
2023/08/27 10:25:24;;;;;;;3.63;2.00;;;21.40;99.90;;;;;;4976128;28;20049;-85
2023/08/27 10:27:51;;;;;;;2.53;2.00;;;21.40;99.90;;;;;;4958749;28;20261;-87
2023/08/27 10:30:18;;;;;;;2.33;2.00;;;21.30;99.90;;;;;;4944412;28;20416;-85
2023/08/27 10:32:45;;;;;;;5.32;2.30;;;21.60;99.90;;;;;;4962102;28;20046;-85
2023/08/27 10:35:11;;;;;;;4.10;1.80;;;21.20;99.90;;;;;;4972964;28;20070;-86
2023/08/27 10:37:44;;;;;;;2.30;1.88;;;21.40;99.90;;;;;;4957543;28;20104;-86
2023/08/27 10:40:15;;;;;;;2.55;2.15;;;21.40;99.90;;;;;;4976594;28;20470;-85
2023/08/27 10:42:41;;;;;;;3.85;2.10;;;21.10;99.90;;;;;;4941682;28;20081;-85
2023/08/27 10:45:27;;;;;;;4.68;2.28;;;20.60;99.90;;;;;;4976893;28;21058;-86
2023/08/27 10:48:07;;;;;;;2.33;2.10;;;20.20;99.90;;;;;;4971886;28;20125;-84
2023/08/27 10:51:07;;;;;;;3.03;2.20;;;20.10;99.90;;;;;;4960788;28;20042;-84
2023/08/27 10:53:40;;;;;;;3.72;2.50;;;19.90;99.90;;;;;;4939753;28;20126;-84
2023/08/27 10:56:26;;;;;;;3.08;2.10;;;19.40;99.90;;;;;;4955072;28;20053;-83
2023/08/27 10:58:51;;;;;;;3.67;2.22;;;19.40;99.90;;;;;;4957856;28;20730;-83
2023/08/27 11:01:18;;;;;;;2.63;2.08;;;19.30;99.90;;;;;;4956487;28;20137;-84
2023/08/27 11:04:01;;;;;;;5.18;2.33;;;19.50;99.90;;;;;;4974738;28;20422;-84
2023/08/27 11:06:48;;;;;;;5.45;2.60;;;20.00;99.90;;;;;;4972844;28;20146;-83
2023/08/27 11:09:23;;;;;;;5.10;2.67;;;19.80;99.90;;;;;;4970079;28;20232;-84
2023/08/27 11:11:51;;;;;;;4.28;2.90;;;20.10;99.90;;;;;;4973687;28;20057;-83
2023/08/27 11:14:19;;;;;;;3.50;2.33;;;19.90;99.90;;;;;;4975671;28;20048;-83
2023/08/27 11:16:53;;;;;;;2.83;2.20;;;19.90;99.90;;;;;;4955789;28;20039;-84
2023/08/27 11:19:31;;;;;;;4.35;2.20;;;20.50;99.90;;;;;;4958862;28;20506;-84
2023/08/27 11:22:10;;;;;;;5.03;2.60;;;20.70;99.90;;;;;;4957077;28;20152;-84
2023/08/27 11:24:43;;;;;;;4.22;2.50;;;20.70;99.90;;;;;;4957441;28;20050;-84
2023/08/27 11:27:10;;;;;;;3.35;2.65;;;20.70;99.90;;;;;;4971783;28;20093;-84
2023/08/27 11:29:43;;;;;;;3.40;2.40;;;21.10;99.90;;;;;;4957014;28;20057;-84
2023/08/27 11:32:11;;;;;;;3.30;2.70;;;21.20;99.90;;;;;;4956686;28;20566;-84
2023/08/27 11:34:38;;;;;;;3.13;2.30;;;21.10;99.90;;;;;;4959163;28;20413;-84
2023/08/27 11:37:04;;;;;;;3.10;2.60;;;21.00;99.90;;;;;;4955631;28;20054;-84
2023/08/27 11:39:33;;;;;;;7.70;3.50;;;21.70;99.90;;;;;;4956435;28;20074;-84
2023/08/27 11:41:59;;;;;;;3.97;2.80;;;21.70;99.90;;;;;;4952633;28;20450;-85
2023/08/27 11:44:25;;;;;;;5.22;2.85;;;21.80;99.90;;;;;;4975966;28;20056;-85
2023/08/27 11:46:51;;;;;;;4.82;3.00;;;21.40;99.90;;;;;;4940210;28;20639;-84
2023/08/27 11:49:28;;;;;;;5.05;3.08;;;21.50;99.90;;;;;;4959460;28;20390;-84
2023/08/27 11:51:56;;;;;;;4.25;3.05;;;21.20;99.90;;;;;;4974785;28;20095;-84
2023/08/27 11:54:24;;;;;;;4.28;3.15;;;20.90;99.90;;;;;;4971795;28;20035;-85
2023/08/27 11:56:51;;;;;;;3.90;2.67;;;20.70;99.90;;;;;;4958915;28;20100;-84
2023/08/27 11:59:17;;;;;;;5.40;3.50;;;20.40;99.90;;;;;;4936954;28;20073;-84
2023/08/27 12:01:43;;;;;;;4.72;3.30;;;20.00;99.90;;;;;;4939098;28;20038;-84
2023/08/27 12:04:11;;;;;;;3.85;3.40;;;20.00;99.90;;;;;;4958644;28;20393;-85
2023/08/27 12:06:37;;;;;;;5.43;3.25;;;19.80;99.90;;;;;;4956018;28;20101;-84
2023/08/27 12:09:03;;;;;;;4.68;3.40;;;20.10;99.90;;;;;;4957291;28;20058;-84
2023/08/27 12:11:30;;;;;;;3.53;3.00;;;19.90;99.90;;;;;;4973118;28;20216;-84
2023/08/27 12:13:59;;;;;;;5.88;3.55;;;20.10;99.90;;;;;;4941593;28;20034;-85
2023/08/27 12:16:33;;;;;;;3.83;2.17;;;19.70;99.90;;;;;;4939089;28;20084;-84
2023/08/27 12:19:00;;;;;;;2.42;2.22;;;19.00;99.90;;;;;;4958179;28;20065;-83
2023/08/27 12:21:26;;;;;;;2.88;2.38;;;18.50;99.90;;;;;;4956562;28;20042;-84
2023/08/27 12:23:52;;;;;;;4.53;2.88;;;18.20;99.90;;;;;;4975006;28;20035;-83
2023/08/27 12:26:18;;;;;;;3.80;3.28;;;17.80;99.90;;;;;;4956203;28;20057;-83
2023/08/27 12:28:54;;;;;;;2.60;2.38;;;17.30;99.90;;;;;;4957355;28;20034;-83
2023/08/27 12:31:24;;;;;;;3.15;2.38;;;17.30;99.90;;;;;;4942028;28;20652;-83
2023/08/27 12:33:59;;;;;;;3.15;1.83;;;17.00;99.90;;;;;;4943871;28;20047;-84
2023/08/27 12:36:25;;;;;;;4.35;1.73;;;16.60;99.90;;;;;;4942979;28;20057;-83
2023/08/27 12:38:51;;;;;;;3.40;1.65;;;16.40;99.90;;;;;;4957724;28;20065;-83
2023/08/27 12:41:17;;;;;;;2.83;1.70;;;16.80;99.90;;;;;;4973832;28;21522;-83